Time;durP1;ratioP1;P1;durP2;ratioP2;P2;SDS_P1;SDS_P2;PMS_P1;PMS_P2;Temp;Humidity;BMP_temperature;BMP_pressure;BME280_temperature;BME280_humidity;BME280_pressure;Samples;Min_cycle;Max_cycle;Signal;HPM_P1;HPM_P2
2022/04/18 00:00:58;;;;;;;;;;;;;;;20.26;40.23;101913.28;5074693;28;3350;-61
2022/04/18 00:03:24;;;;;;;;;;;;;;;20.27;40.33;101915.53;5074630;28;3650;-62
2022/04/18 00:05:51;;;;;;;;;;;;;;;20.28;40.55;101916.28;5077027;28;3250;-62
2022/04/18 00:08:17;;;;;;;;;;;;;;;20.27;40.45;101909.00;5070428;28;3398;-62
2022/04/18 00:10:44;;;;;;;;;;;;;;;20.27;40.65;101911.88;5077912;28;3654;-61
2022/04/18 00:13:10;;;;;;;;;;;;;;;20.28;40.83;101911.28;5079761;28;3265;-62
2022/04/18 00:15:37;;;;;;;;;;;;;;;20.27;40.63;101903.25;5070534;28;3352;-61
2022/04/18 00:18:03;;;;;;;;;;;;;;;20.27;40.63;101900.38;5075620;28;3680;-61
2022/04/18 00:20:29;;;;;;;;;;;;;;;20.26;40.56;101907.53;5080900;28;3289;-62
2022/04/18 00:22:56;;;;;;;;;;;;;;;20.27;40.76;101903.25;5082584;28;3391;-61
2022/04/18 00:25:22;;;;;;;;;;;;;;;20.25;40.83;101898.16;5083619;28;3430;-62
2022/04/18 00:27:49;;;;;;;;;;;;;;;20.25;40.83;101897.41;5084786;28;3300;-61
2022/04/18 00:30:17;;;;;;;;;;;;;;;20.25;40.84;101898.16;5091503;27;3329;-62
2022/04/18 00:32:43;;;;;;;;;;;;;;;20.25;40.84;101894.53;5102248;28;2764;-62
2022/04/18 00:35:09;;;;;;;;;;;;;;;20.24;40.92;101893.00;5106144;27;3462;-62
2022/04/18 00:37:39;;;;;;;;;;;;;;;20.24;40.82;101884.38;5101185;27;3312;-61
2022/04/18 00:40:06;;;;;;;;;;;;;;;20.24;40.89;101890.13;5101687;28;3595;-62
2022/04/18 00:42:33;;;;;;;;;;;;;;;20.23;40.90;101875.00;5098586;28;3308;-61
2022/04/18 00:45:00;;;;;;;;;;;;;;;20.22;40.84;101884.25;5114181;27;3146;-62
2022/04/18 00:47:26;;;;;;;;;;;;;;;20.22;40.90;101878.50;5102072;27;3284;-61
2022/04/18 00:49:53;;;;;;;;;;;;;;;20.21;40.80;101872.00;5101822;28;2438;-61
2022/04/18 00:52:19;;;;;;;;;;;;;;;20.21;40.79;101877.00;5091976;28;3275;-61
2022/04/18 00:54:45;;;;;;;;;;;;;;;20.21;40.85;101877.00;5094308;28;3503;-62
2022/04/18 00:57:12;;;;;;;;;;;;;;;20.23;41.08;101868.50;5093205;28;3423;-62
2022/04/18 00:59:38;;;;;;;;;;;;;;;20.24;41.18;101872.88;5094327;28;3358;-62
2022/04/18 01:02:05;;;;;;;;;;;;;;;20.24;41.10;101856.38;5099123;28;2583;-62
2022/04/18 01:04:31;;;;;;;;;;;;;;;20.24;41.04;101864.25;5100923;28;3284;-61
2022/04/18 01:06:58;;;;;;;;;;;;;;;20.24;41.18;101855.63;5098009;28;3124;-62
2022/04/18 01:09:24;;;;;;;;;;;;;;;20.24;40.89;101861.38;5097836;28;3394;-61
2022/04/18 01:11:50;;;;;;;;;;;;;;;20.24;41.15;101855.63;5098647;27;3298;-61
2022/04/18 01:14:49;;;;;;;;;;;;;;;20.23;41.36;101851.25;5080947;28;3528;-61
2022/04/18 01:17:50;;;;;;;;;;;;;;;20.22;41.45;101847.59;5083031;28;3278;-61
2022/04/18 01:20:34;;;;;;;;;;;;;;;20.22;41.63;101838.22;5095507;28;3836;-61
2022/04/18 01:23:23;;;;;;;;;;;;;;;20.22;41.68;101844.00;5101182;28;3269;-61
2022/04/18 01:28:58;;;;;;;;;;;;;;;20.23;41.69;101834.00;5076619;28;3006;-61
2022/04/18 01:31:28;;;;;;;;;;;;;;;20.24;41.71;101829.75;5097618;28;3459;-62
2022/04/18 01:33:55;;;;;;;;;;;;;;;20.24;41.55;101829.75;5100128;28;3375;-62
2022/04/18 01:36:22;;;;;;;;;;;;;;;20.23;41.39;101823.25;5103209;28;2992;-61
2022/04/18 01:38:50;;;;;;;;;;;;;;;20.24;41.44;101829.75;5101187;28;3230;-62
2022/04/18 01:41:17;;;;;;;;;;;;;;;20.23;41.33;101823.25;5107135;27;3303;-61
2022/04/18 01:43:43;;;;;;;;;;;;;;;20.23;41.26;101828.25;5104420;28;2761;-61
2022/04/18 01:46:10;;;;;;;;;;;;;;;20.24;41.29;101818.22;5104270;28;3306;-61
2022/04/18 01:48:37;;;;;;;;;;;;;;;20.22;41.18;101818.09;5093841;28;3334;-61
2022/04/18 01:51:04;;;;;;;;;;;;;;;20.21;41.11;101820.22;5094327;28;3597;-61
2022/04/18 01:53:32;;;;;;;;;;;;;;;20.22;41.10;101820.97;5104566;28;3130;-62
2022/04/18 01:55:58;;;;;;;;;;;;;;;20.22;41.10;101820.97;5096494;28;3186;-62
2022/04/18 01:58:30;;;;;;;;;;;;;;;20.22;41.04;101815.22;5095757;27;3328;-61
2022/04/18 02:00:56;;;;;;;;;;;;;;;20.21;41.13;101810.88;5104929;28;3205;-61
2022/04/18 02:03:23;;;;;;;;;;;;;;;20.20;41.09;101813.00;5093113;27;3988;-61
2022/04/18 02:05:52;;;;;;;;;;;;;;;20.19;40.99;101804.97;5097196;28;3758;-61
2022/04/18 02:08:19;;;;;;;;;;;;;;;20.19;41.07;101808.59;5102932;28;3357;-61
2022/04/18 02:10:46;;;;;;;;;;;;;;;20.20;40.98;101812.22;5099197;28;3351;-61
2022/04/18 02:13:16;;;;;;;;;;;;;;;20.20;40.70;101800.72;5102992;28;3139;-62
2022/04/18 02:15:43;;;;;;;;;;;;;;;20.21;40.88;101802.22;5101180;28;3306;-61
2022/04/18 02:18:11;;;;;;;;;;;;;;;20.22;40.87;101804.47;5103331;27;2706;-62
2022/04/18 02:20:37;;;;;;;;;;;;;;;20.25;41.15;101802.50;5097338;28;3305;-61
2022/04/18 02:23:04;;;;;;;;;;;;;;;20.21;41.65;101791.47;5116284;27;3380;-61
2022/04/18 02:25:30;;;;;;;;;;;;;;;20.20;41.73;101786.34;5103851;28;3953;-61
2022/04/18 02:28:03;;;;;;;;;;;;;;;20.19;41.78;101787.72;5098533;28;3257;-62
2022/04/18 02:30:30;;;;;;;;;;;;;;;20.20;41.86;101794.97;5103010;27;3211;-61
2022/04/18 02:32:59;;;;;;;;;;;;;;;20.19;41.56;101782.72;5098154;28;3672;-62
2022/04/18 02:35:25;;;;;;;;;;;;;;;20.19;41.55;101791.34;5119271;27;3688;-62
2022/04/18 02:37:55;;;;;;;;;;;;;;;20.20;41.37;101789.22;5097982;28;2911;-61
2022/04/18 02:40:28;;;;;;;;;;;;;;;20.19;41.39;101793.47;5118731;27;2740;-61
2022/04/18 02:42:54;;;;;;;;;;;;;;;20.19;41.18;101782.72;5119867;27;2920;-61
2022/04/18 02:45:21;;;;;;;;;;;;;;;20.19;41.27;101794.22;5105074;27;3504;-62
2022/04/18 02:48:09;;;;;;;;;;;;;;;20.20;41.11;101783.47;5102647;27;3355;-61
2022/04/18 02:50:39;;;;;;;;;;;;;;;20.20;40.99;101789.22;5095783;28;3265;-61
2022/04/18 02:53:06;;;;;;;;;;;;;;;20.20;41.03;101790.00;5095047;28;2812;-61
2022/04/18 02:55:40;;;;;;;;;;;;;;;20.21;41.37;101784.97;5101039;28;3334;-61
2022/04/18 02:58:06;;;;;;;;;;;;;;;20.18;41.61;101781.22;5106885;27;3267;-61
2022/04/18 03:00:35;;;;;;;;;;;;;;;20.19;41.68;101779.09;5099418;28;3432;-61
2022/04/18 03:03:01;;;;;;;;;;;;;;;20.19;41.75;101782.72;5095076;28;3190;-61
2022/04/18 03:05:30;;;;;;;;;;;;;;;20.19;42.00;101776.22;5102048;28;3228;-61
2022/04/18 03:07:56;;;;;;;;;;;;;;;20.19;41.88;101770.47;5093717;28;3452;-61
2022/04/18 03:11:02;;;;;;;;;;;;;;;20.19;41.90;101758.97;5096752;28;3307;-61
2022/04/18 03:13:11;;;;;;;;;;;;;;;20.17;42.00;101755.97;5095839;28;3359;-61
2022/04/18 03:15:38;;;;;;;;;;;;;;;20.19;41.87;101764.72;5099800;28;3319;-61
2022/04/18 03:18:05;;;;;;;;;;;;;;;20.18;41.91;101763.19;5097701;28;2782;-61
2022/04/18 03:20:32;;;;;;;;;;;;;;;20.19;41.86;101765.47;5103029;27;3346;-61
2022/04/18 03:22:58;;;;;;;;;;;;;;;20.17;41.92;101756.72;5098004;28;3265;-61
2022/04/18 03:25:47;;;;;;;;;;;;;;;20.19;41.76;101761.84;5103478;27;3352;-61
2022/04/18 03:28:14;;;;;;;;;;;;;;;20.19;41.83;101761.84;5099628;28;3317;-61
2022/04/18 03:30:41;;;;;;;;;;;;;;;20.19;41.92;101758.97;5093123;28;3820;-61
2022/04/18 03:33:07;;;;;;;;;;;;;;;20.17;41.90;101753.84;5090119;28;3257;-61
2022/04/18 03:35:34;;;;;;;;;;;;;;;20.19;41.97;101751.09;5094166;28;3536;-61
2022/04/18 03:40:45;;;;;;;;;;;;;;;20.20;41.89;101751.81;5094776;28;3639;-61
2022/04/18 03:43:12;;;;;;;;;;;;;;;20.18;41.94;101749.59;5087616;28;3671;-62
2022/04/18 03:45:38;;;;;;;;;;;;;;;20.20;41.96;101752.59;5102969;28;3061;-61
2022/04/18 03:48:05;;;;;;;;;;;;;;;20.20;42.02;101749.72;5100796;28;2568;-61
2022/04/18 03:50:32;;;;;;;;;;;;;;;20.19;41.91;101747.47;5107689;28;3290;-61
2022/04/18 03:52:58;;;;;;;;;;;;;;;20.21;42.01;101748.34;5096428;28;3131;-61
2022/04/18 03:55:32;;;;;;;;;;;;;;;20.19;42.09;101748.22;5108077;28;2803;-61
2022/04/18 03:58:06;;;;;;;;;;;;;;;20.21;41.98;101741.84;5097697;28;3375;-61
2022/04/18 04:00:34;;;;;;;;;;;;;;;20.20;41.92;101746.84;5100835;28;2995;-61
2022/04/18 04:03:02;;;;;;;;;;;;;;;20.21;41.88;101741.84;5104253;28;2866;-61
2022/04/18 04:05:36;;;;;;;;;;;;;;;20.21;41.96;101744.72;5098690;28;3342;-61
2022/04/18 04:08:03;;;;;;;;;;;;;;;20.21;41.92;101738.97;5102937;28;3625;-62
2022/04/18 04:10:31;;;;;;;;;;;;;;;20.20;41.93;101738.22;5104473;28;3236;-62
2022/04/18 04:12:59;;;;;;;;;;;;;;;20.20;42.04;101737.44;5097347;28;3596;-61
2022/04/18 04:15:47;;;;;;;;;;;;;;;20.21;41.86;101741.84;5095407;27;3623;-61
2022/04/18 04:18:21;;;;;;;;;;;;;;;20.22;41.82;101746.19;5096724;28;3594;-61
2022/04/18 04:20:48;;;;;;;;;;;;;;;20.23;41.80;101747.72;5102946;27;3412;-61
2022/04/18 04:23:16;;;;;;;;;;;;;;;20.22;41.88;101752.69;5099490;28;2763;-61
2022/04/18 04:25:55;;;;;;;;;;;;;;;20.22;41.97;101746.19;5100621;28;3651;-61
2022/04/18 04:28:35;;;;;;;;;;;;;;;20.22;42.00;101746.19;5124254;27;2712;-61
2022/04/18 04:31:08;;;;;;;;;;;;;;;20.22;41.90;101746.94;5098026;28;3322;-61
2022/04/18 04:33:35;;;;;;;;;;;;;;;20.24;42.03;101749.22;5097977;28;3550;-62
2022/04/18 04:36:04;;;;;;;;;;;;;;;20.22;41.95;101746.19;5096703;28;3279;-61
2022/04/18 04:38:31;;;;;;;;;;;;;;;20.23;41.95;101745.59;5108103;27;3285;-61
2022/04/18 04:41:03;;;;;;;;;;;;;;;20.24;41.93;101737.69;5101378;28;3499;-62
2022/04/18 04:43:39;;;;;;;;;;;;;;;20.24;42.04;101737.69;5097298;28;3621;-61
2022/04/18 04:46:07;;;;;;;;;;;;;;;20.24;41.85;101738.44;5095502;28;3577;-61
2022/04/18 04:48:42;;;;;;;;;;;;;;;20.24;41.98;101729.06;5105738;27;3540;-61
2022/04/18 04:51:14;;;;;;;;;;;;;;;20.23;42.04;101728.31;5103981;27;3320;-61
2022/04/18 04:53:40;;;;;;;;;;;;;;;20.24;41.95;101731.94;5099189;28;3248;-61
2022/04/18 04:56:09;;;;;;;;;;;;;;;20.24;41.98;101735.56;5109372;27;3245;-61
2022/04/18 04:58:37;;;;;;;;;;;;;;;20.23;41.92;101730.47;5099714;28;3343;-61
2022/04/18 05:01:07;;;;;;;;;;;;;;;20.25;41.90;101739.22;5119841;27;3461;-61
2022/04/18 05:03:42;;;;;;;;;;;;;;;20.22;41.99;101735.44;5103405;28;3231;-61
2022/04/18 05:06:10;;;;;;;;;;;;;;;20.24;41.99;101737.69;5118622;27;3296;-61
2022/04/18 05:08:41;;;;;;;;;;;;;;;20.24;41.88;101726.19;5103728;28;3335;-61
2022/04/18 05:11:08;;;;;;;;;;;;;;;20.25;41.86;101733.47;5093422;27;3552;-61
2022/04/18 05:13:51;;;;;;;;;;;;;;;20.24;41.92;101731.94;5099907;28;3326;-61
2022/04/18 05:16:29;;;;;;;;;;;;;;;20.25;41.91;101736.34;5098953;28;3308;-61
2022/04/18 05:19:09;;;;;;;;;;;;;;;20.25;41.83;101728.47;5095397;28;3554;-61
2022/04/18 05:21:37;;;;;;;;;;;;;;;20.25;41.92;101721.97;5106699;28;2358;-61
2022/04/18 05:24:11;;;;;;;;;;;;;;;20.24;41.84;101718.31;5099983;28;3655;-61
2022/04/18 05:26:38;;;;;;;;;;;;;;;20.24;41.96;101726.19;5101823;28;3379;-61
2022/04/18 05:29:05;;;;;;;;;;;;;;;20.25;42.01;101728.47;5100881;28;3237;-61
2022/04/18 05:31:32;;;;;;;;;;;;;;;20.26;41.96;101720.56;5099848;28;3710;-61
2022/04/18 05:33:59;;;;;;;;;;;;;;;20.26;41.98;101720.56;5095368;28;3302;-61
2022/04/18 05:36:44;;;;;;;;;;;;;;;20.24;42.00;101726.19;5104979;28;3242;-61
2022/04/18 05:39:17;;;;;;;;;;;;;;;20.25;41.95;101722.69;5099990;28;3481;-61
2022/04/18 05:41:44;;;;;;;;;;;;;;;20.25;41.93;101727.72;5096548;28;3284;-61
2022/04/18 05:44:16;;;;;;;;;;;;;;;20.27;41.89;101724.94;5101360;28;3370;-61
2022/04/18 05:46:50;;;;;;;;;;;;;;;20.27;41.85;101724.94;5112989;27;2838;-61
2022/04/18 05:49:17;;;;;;;;;;;;;;;20.27;41.94;101724.94;5099262;28;3352;-61
2022/04/18 05:51:44;;;;;;;;;;;;;;;20.28;41.92;101732.19;5098523;28;2667;-61
2022/04/18 05:54:10;;;;;;;;;;;;;;;20.27;42.03;101730.69;5099740;28;2893;-61
2022/04/18 05:56:42;;;;;;;;;;;;;;;20.27;41.99;101722.06;5104135;28;2398;-61
2022/04/18 05:59:19;;;;;;;;;;;;;;;20.26;41.96;101727.06;5099717;28;2875;-61
2022/04/18 06:02:06;;;;;;;;;;;;;;;20.27;42.06;101730.69;5100218;28;3310;-61
2022/04/18 06:04:34;;;;;;;;;;;;;;;20.27;42.09;101730.69;5116087;27;3278;-61
2022/04/18 06:07:19;;;;;;;;;;;;;;;20.27;42.03;101722.06;5103768;28;3401;-61
2022/04/18 06:09:59;;;;;;;;;;;;;;;20.26;42.13;101729.94;5095044;28;3417;-61
2022/04/18 06:12:26;;;;;;;;;;;;;;;20.28;42.08;101732.19;5100323;28;3319;-61
2022/04/18 06:14:54;;;;;;;;;;;;;;;20.27;42.05;101728.59;5104391;28;2807;-61
2022/04/18 06:17:21;;;;;;;;;;;;;;;20.28;42.05;101720.69;5107740;27;2954;-61
2022/04/18 06:19:51;;;;;;;;;;;;;;;20.27;42.18;101724.94;5091862;28;3342;-61
2022/04/18 06:22:17;;;;;;;;;;;;;;;20.30;42.16;101720.81;5092275;27;2952;-61
2022/04/18 06:24:44;;;;;;;;;;;;;;;20.31;42.00;101719.44;5087671;28;2980;-62
2022/04/18 06:27:21;;;;;;;;;;;;;;;20.32;41.91;101720.94;5090522;28;3018;-62
2022/04/18 06:29:47;;;;;;;;;;;;;;;20.32;42.04;101720.19;5102944;27;2955;-61
2022/04/18 06:32:14;;;;;;;;;;;;;;;20.33;42.35;101724.56;5100468;27;2882;-61
2022/04/18 06:34:45;;;;;;;;;;;;;;;20.34;42.04;101723.94;5123724;27;2361;-61
2022/04/18 06:37:16;;;;;;;;;;;;;;;20.34;41.87;101721.06;5099707;27;3007;-61
2022/04/18 06:40:03;;;;;;;;;;;;;;;20.35;41.84;101716.06;5112939;27;3477;-61
2022/04/18 06:42:40;;;;;;;;;;;;;;;20.33;42.05;101722.44;5101027;27;3684;-61
2022/04/18 06:45:20;;;;;;;;;;;;;;;20.34;42.11;101723.94;5119093;27;3279;-61
2022/04/18 06:47:46;;;;;;;;;;;;;;;20.35;42.02;101713.94;5089866;27;3652;-61
2022/04/18 06:50:22;;;;;;;;;;;;;;;20.35;42.55;101719.69;5118995;27;3575;-61
2022/04/18 06:53:07;;;;;;;;;;;;;;;20.35;42.67;101725.44;5125048;27;3316;-61
2022/04/18 06:59:17;;;;;;;;;;;;;;;20.35;43.04;101719.69;5101485;27;2872;-61
2022/04/18 07:01:44;;;;;;;;;;;;;;;20.13;41.81;101721.19;5100440;27;3328;-62
2022/04/18 07:04:13;;;;;;;;;;;;;;;20.09;42.23;101716.72;5095399;28;3280;-48
2022/04/18 07:06:40;;;;;;;;;;;;;;;20.27;42.03;101707.69;5092836;27;3336;-48
2022/04/18 07:09:07;;;;;;;;;;;;;;;20.35;42.91;101725.44;5096624;27;3723;-52
2022/04/18 07:11:42;;;;;;;;;;;;;;;20.41;42.41;101713.53;5099497;28;3463;-47
2022/04/18 07:14:08;;;;;;;;;;;;;;;20.46;42.39;101718.91;5104443;27;3335;-50
2022/04/18 07:16:35;;;;;;;;;;;;;;;20.48;42.37;101718.28;5096198;28;3771;-51
2022/04/18 07:19:01;;;;;;;;;;;;;;;20.47;42.61;101720.41;5100050;27;3599;-50
2022/04/18 07:21:28;;;;;;;;;;;;;;;20.49;42.49;101716.91;5099905;28;3710;-48
2022/04/18 07:23:54;;;;;;;;;;;;;;;20.46;42.27;101710.28;5097646;27;3155;-57
2022/04/18 07:26:22;;;;;;;;;;;;;;;20.45;42.65;101723.16;5105486;28;2488;-52
2022/04/18 07:28:49;;;;;;;;;;;;;;;20.54;42.40;101706.38;5100300;27;3264;-53
2022/04/18 07:31:16;;;;;;;;;;;;;;;20.56;42.77;101704.41;5102858;27;3353;-54
2022/04/18 07:33:43;;;;;;;;;;;;;;;20.57;42.68;101717.41;5099032;28;3501;-54
2022/04/18 07:36:14;;;;;;;;;;;;;;;20.58;42.96;101713.16;5094333;28;3270;-57
2022/04/18 07:38:50;;;;;;;;;;;;;;;20.64;43.03;101709.91;5115035;28;3586;-56
2022/04/18 07:41:24;;;;;;;;;;;;;;;20.64;43.00;101712.78;5090275;28;3538;-56
2022/04/18 07:43:51;;;;;;;;;;;;;;;20.71;43.09;101717.50;5093860;28;2793;-55
2022/04/18 07:46:18;;;;;;;;;;;;;;;20.68;43.13;101705.13;5114981;28;3364;-56
2022/04/18 07:48:46;;;;;;;;;;;;;;;20.70;43.39;101707.34;5098029;28;3537;-56
2022/04/18 07:53:58;;;;;;;;;;;;;;;20.78;43.28;101707.09;5105302;28;3358;-55
2022/04/18 07:56:25;;;;;;;;;;;;;;;20.77;43.34;101700.56;5096292;28;2848;-56
2022/04/18 07:58:52;;;;;;;;;;;;;;;20.80;43.28;101707.19;5114200;28;3249;-56
2022/04/18 08:01:27;;;;;;;;;;;;;;;20.81;43.33;101700.81;5099005;28;3329;-52
2022/04/18 08:03:54;;;;;;;;;;;;;;;20.82;43.36;101702.31;5119595;28;2874;-56
2022/04/18 08:06:21;;;;;;;;;;;;;;;20.83;43.36;101709.56;5096843;28;3345;-55
2022/04/18 08:09:01;;;;;;;;;;;;;;;20.86;43.34;101707.56;5120136;28;3276;-55
2022/04/18 08:11:28;;;;;;;;;;;;;;;20.88;43.51;101699.78;5096819;28;3251;-56
2022/04/18 08:13:54;;;;;;;;;;;;;;;20.87;43.59;101697.56;5098834;28;3369;-57
2022/04/18 08:16:39;;;;;;;;;;;;;;;20.88;43.46;101699.78;5113956;28;3366;-57
2022/04/18 08:19:39;;;;;;;;;;;;;;;20.90;43.59;101694.16;5114169;28;3368;-56
2022/04/18 08:22:06;;;;;;;;;;;;;;;20.89;43.55;101689.78;5094398;28;3835;-57
2022/04/18 08:24:42;;;;;;;;;;;;;;;20.90;43.67;101685.50;5098946;28;2854;-56
2022/04/18 08:27:28;;;;;;;;;;;;;;;20.91;43.68;101694.88;5108560;28;3275;-57
2022/04/18 08:30:05;;;;;;;;;;;;;;;20.89;43.93;101695.53;5096284;28;3278;-57
2022/04/18 08:32:38;;;;;;;;;;;;;;;20.78;43.06;101684.81;5094146;28;3296;-58
2022/04/18 08:35:05;;;;;;;;;;;;;;;20.64;41.81;101681.13;5108477;28;3052;-58
2022/04/18 08:37:33;;;;;;;;;;;;;;;20.47;39.78;101685.88;5103619;27;3650;-57
2022/04/18 08:40:18;;;;;;;;;;;;;;;20.51;38.89;101680.38;5115594;27;2871;-56
2022/04/18 08:42:46;;;;;;;;;;;;;;;20.61;40.74;101683.09;5116409;27;3859;-57
2022/04/18 08:45:13;;;;;;;;;;;;;;;20.71;41.47;101685.84;5115497;27;2967;-60
2022/04/18 08:53:17;;;;;;;;;;;;;;;20.56;41.14;101677.72;5103552;27;3693;-53
2022/04/18 08:55:43;;;;;;;;;;;;;;;20.62;41.31;101667.34;5125432;27;2553;-54
2022/04/18 08:58:29;;;;;;;;;;;;;;;20.68;41.03;101669.81;5098788;27;3652;-56
2022/04/18 09:00:57;;;;;;;;;;;;;;;20.69;40.81;101665.59;5115022;27;3469;-54
2022/04/18 09:03:50;;;;;;;;;;;;;;;20.70;40.87;101664.94;5107190;27;3658;-56
2022/04/18 09:06:23;;;;;;;;;;;;;;;20.71;40.86;101657.06;5108987;27;3397;-55
2022/04/18 09:09:03;;;;;;;;;;;;;;;20.74;41.10;101655.06;5105854;27;3371;-55
2022/04/18 09:11:32;;;;;;;;;;;;;;;20.72;41.29;101661.44;5114149;27;3309;-56
2022/04/18 09:14:05;;;;;;;;;;;;;;;20.73;41.36;101654.31;5123002;27;3813;-57
2022/04/18 09:16:31;;;;;;;;;;;;;;;20.73;41.49;101642.03;5102325;27;3269;-53
2022/04/18 09:19:03;;;;;;;;;;;;;;;20.73;41.66;101639.16;5102296;27;3362;-55
2022/04/18 09:21:29;;;;;;;;;;;;;;;20.71;41.95;101640.53;5101877;27;2329;-55
2022/04/18 09:23:56;;;;;;;;;;;;;;;20.71;42.04;101634.03;5104937;27;3125;-56
2022/04/18 09:26:31;;;;;;;;;;;;;;;20.72;42.13;101624.00;5111854;27;2551;-55
2022/04/18 09:29:05;;;;;;;;;;;;;;;20.71;42.23;101631.91;5101438;27;3364;-56
2022/04/18 09:31:37;;;;;;;;;;;;;;;20.73;42.40;101625.53;5108238;27;2398;-56
2022/04/18 09:34:06;;;;;;;;;;;;;;;20.71;42.51;101619.66;5125158;27;3327;-56
2022/04/18 09:36:32;;;;;;;;;;;;;;;20.70;42.50;101610.25;5099977;27;3273;-56
2022/04/18 09:38:59;;;;;;;;;;;;;;;20.70;42.69;101603.75;5103179;27;3030;-56
2022/04/18 09:41:26;;;;;;;;;;;;;;;20.72;42.76;101612.50;5118784;27;3492;-55
2022/04/18 09:43:53;;;;;;;;;;;;;;;20.71;42.73;101606.00;5120003;27;3383;-55
2022/04/18 09:46:25;;;;;;;;;;;;;;;20.74;42.74;101615.50;5105966;27;3446;-54
2022/04/18 09:49:03;;;;;;;;;;;;;;;20.73;42.82;101602.50;5104000;27;3336;-56
2022/04/18 09:51:37;;;;;;;;;;;;;;;20.74;43.03;101600.38;5103894;27;3379;-57
2022/04/18 09:54:12;;;;;;;;;;;;;;;20.71;42.95;101603.13;5099099;27;3711;-56
2022/04/18 09:56:46;;;;;;;;;;;;;;;20.74;43.09;101597.50;5122079;27;3424;-55
2022/04/18 09:59:14;;;;;;;;;;;;;;;20.85;42.77;101597.41;5124725;27;2660;-53
2022/04/18 10:01:40;;;;;;;;;;;;;;;20.76;42.98;101595.47;5122296;27;3382;-56
2022/04/18 10:04:08;;;;;;;;;;;;;;;20.75;43.10;101593.97;5113360;27;3337;-55
2022/04/18 10:06:35;;;;;;;;;;;;;;;20.74;43.28;101585.97;5119007;27;3322;-54
2022/04/18 10:09:01;;;;;;;;;;;;;;;20.71;43.33;101582.25;5118067;27;3328;-56
2022/04/18 10:11:28;;;;;;;;;;;;;;;20.74;43.33;101589.59;5119937;27;3287;-56
2022/04/18 10:13:54;;;;;;;;;;;;;;;20.71;43.37;101579.34;5119547;27;3326;-56
2022/04/18 10:16:21;;;;;;;;;;;;;;;20.73;43.32;101573.72;5123833;27;3425;-55
2022/04/18 10:18:51;;;;;;;;;;;;;;;20.72;43.34;101577.97;5123240;27;3158;-54
2022/04/18 10:21:30;;;;;;;;;;;;;;;20.74;43.49;101580.97;5102374;27;3363;-57
2022/04/18 10:24:15;;;;;;;;;;;;;;;20.71;43.41;101576.47;5101779;27;3343;-56
2022/04/18 10:26:48;;;;;;;;;;;;;;;20.72;43.57;101563.56;5120363;27;3273;-56
2022/04/18 10:29:16;;;;;;;;;;;;;;;20.72;43.54;101572.22;5105283;27;3452;-56
2022/04/18 10:31:48;;;;;;;;;;;;;;;20.71;43.75;101559.94;5105910;27;3487;-56
2022/04/18 10:34:15;;;;;;;;;;;;;;;20.75;43.50;101570.19;5107446;27;3415;-56
2022/04/18 10:36:45;;;;;;;;;;;;;;;20.75;43.54;101570.19;5117322;27;3358;-56
2022/04/18 10:39:11;;;;;;;;;;;;;;;20.74;43.63;101566.56;5125044;27;2588;-55
2022/04/18 10:41:38;;;;;;;;;;;;;;;20.75;43.55;101562.28;5120778;27;2628;-57
2022/04/18 10:44:06;;;;;;;;;;;;;;;20.75;43.69;101562.28;5118535;27;3417;-56
2022/04/18 10:46:32;;;;;;;;;;;;;;;20.75;43.66;101553.66;5124320;27;3313;-55
2022/04/18 10:49:04;;;;;;;;;;;;;;;20.75;43.67;101558.69;5120071;27;3498;-55
2022/04/18 10:51:30;;;;;;;;;;;;;;;20.75;43.75;101559.41;5110975;27;3353;-64
2022/04/18 10:54:08;;;;;;;;;;;;;;;20.72;43.66;101554.94;5110404;27;3222;-57
2022/04/18 10:56:51;;;;;;;;;;;;;;;20.67;43.58;101553.22;5104087;27;3775;-61
2022/04/18 10:59:18;;;;;;;;;;;;;;;20.66;43.69;101552.47;5116702;27;3337;-59
2022/04/18 11:01:44;;;;;;;;;;;;;;;20.72;43.64;101546.31;5119420;27;2651;-59
2022/04/18 11:04:11;;;;;;;;;;;;;;;20.74;43.54;101540.66;5122332;27;2558;-64
2022/04/18 11:06:38;;;;;;;;;;;;;;;20.76;43.37;101537.16;5114271;27;3368;-60
2022/04/18 11:09:08;;;;;;;;;;;;;;;20.76;43.54;101537.91;5119489;27;3309;-60
2022/04/18 11:11:46;;;;;;;;;;;;;;;20.76;43.61;101531.41;5113691;27;3277;-59
2022/04/18 11:14:13;;;;;;;;;;;;;;;20.75;43.56;101524.13;5114181;27;3348;-59
2022/04/18 11:16:42;;;;;;;;;;;;;;;20.76;43.65;101520.63;5118897;27;3367;-59
2022/04/18 11:19:09;;;;;;;;;;;;;;;20.78;43.78;101523.63;5115717;27;3353;-59
2022/04/18 11:22:10;;;;;;;;;;;;;;;20.76;43.93;101514.88;5119402;27;3303;-58
2022/04/18 11:24:49;;;;;;;;;;;;;;;20.76;43.83;101514.88;5018186;28;3365;-58
2022/04/18 11:27:16;;;;;;;;;;;;;;;20.78;43.72;101511.38;5109448;27;3356;-58
2022/04/18 11:29:43;;;;;;;;;;;;;;;20.78;43.82;101512.13;5119738;27;3356;-58
2022/04/18 11:32:09;;;;;;;;;;;;;;;20.79;43.78;101504.22;5117962;27;3191;-58
2022/04/18 11:34:36;;;;;;;;;;;;;;;20.78;43.74;101509.22;5098872;28;3346;-58
2022/04/18 11:37:03;;;;;;;;;;;;;;;20.80;43.77;101506.47;5116465;28;3316;-58
2022/04/18 11:39:49;;;;;;;;;;;;;;;20.79;43.84;101502.09;5117965;28;3396;-58
2022/04/18 11:42:17;;;;;;;;;;;;;;;20.73;43.91;101498.88;5116806;28;3396;-61
2022/04/18 11:44:43;;;;;;;;;;;;;;;20.76;41.57;101503.38;5115366;28;3665;-60
2022/04/18 11:47:10;;;;;;;;;;;;;;;20.72;38.36;101494.50;5118236;28;3432;-61
2022/04/18 11:49:38;;;;;;;;;;;;;;;20.54;39.33;101487.72;5114430;28;3759;-61
2022/04/18 11:52:05;;;;;;;;;;;;;;;20.64;35.78;101491.94;5117173;28;3774;-60
2022/04/18 11:54:31;;;;;;;;;;;;;;;20.62;37.03;101488.19;5121270;28;3152;-58
2022/04/18 11:56:58;;;;;;;;;;;;;;;20.62;38.93;101482.44;5120055;28;3645;-58
2022/04/18 11:59:28;;;;;;;;;;;;;;;20.66;40.44;101477.66;5118926;28;3347;-58
2022/04/18 12:07:26;;;;;;;;;;;;;;;20.75;40.15;101467.31;5120440;28;3300;-58
2022/04/18 12:09:52;;;;;;;;;;;;;;;20.80;40.17;101465.41;5122089;28;3238;-58
2022/04/18 12:12:26;;;;;;;;;;;;;;;20.78;40.41;101454.53;5119326;27;3343;-59
2022/04/18 12:14:52;;;;;;;;;;;;;;;20.76;40.71;101457.31;5123751;27;3348;-59
2022/04/18 12:17:18;;;;;;;;;;;;;;;20.71;41.13;101455.59;5118410;27;3386;-59
2022/04/18 12:19:45;;;;;;;;;;;;;;;20.76;41.26;101450.81;5125321;27;3349;-59
2022/04/18 12:22:21;;;;;;;;;;;;;;;20.75;41.46;101450.03;5121935;27;3326;-59
2022/04/18 12:24:48;;;;;;;;;;;;;;;20.79;41.37;101438.75;5118248;27;3462;-58
2022/04/18 12:27:16;;;;;;;;;;;;;;;20.80;41.42;101439.50;5127080;27;3333;-59
2022/04/18 12:29:46;;;;;;;;;;;;;;;20.81;41.75;101436.00;5102342;27;3353;-59
2022/04/18 12:32:28;;;;;;;;;;;;;;;20.80;41.78;101417.25;5099883;27;3313;-59
2022/04/18 12:34:54;;;;;;;;;;;;;;;20.83;42.16;101421.72;5120172;27;3605;-59
2022/04/18 12:37:25;;;;;;;;;;;;;;;20.83;42.43;101424.59;5123361;27;3258;-59
2022/04/18 12:40:24;;;;;;;;;;;;;;;20.75;42.74;101426.28;5119428;27;3768;-59
2022/04/18 12:42:50;;;;;;;;;;;;;;;20.79;42.84;101409.22;5073290;27;3400;-59
2022/04/18 12:45:17;;;;;;;;;;;;;;;20.83;42.79;101415.97;5118496;27;3333;-59
2022/04/18 12:47:43;;;;;;;;;;;;;;;20.85;42.86;101412.44;5097494;27;3280;-59
2022/04/18 12:50:10;;;;;;;;;;;;;;;20.84;42.85;101411.69;5108619;27;3543;-59
2022/04/18 12:52:50;;;;;;;;;;;;;;;20.84;42.90;101405.19;5115936;27;2811;-63
2022/04/18 12:55:26;;;;;;;;;;;;;;;20.86;43.02;101406.03;5123321;27;2596;-59
2022/04/18 12:57:53;;;;;;;;;;;;;;;20.88;42.75;101399.66;5112397;27;3342;-59
2022/04/18 13:00:19;;;;;;;;;;;;;;;20.87;42.83;101392.41;5116373;27;3378;-58
2022/04/18 13:02:55;;;;;;;;;;;;;;;20.87;42.72;101398.91;5114805;27;3314;-60
2022/04/18 13:05:25;;;;;;;;;;;;;;;20.88;42.90;101388.88;5124359;27;3693;-59
2022/04/18 13:07:51;;;;;;;;;;;;;;;20.87;43.09;101384.50;5119847;27;3072;-59
2022/04/18 13:10:25;;;;;;;;;;;;;;;20.88;43.47;101380.22;5118733;27;3277;-62
2022/04/18 13:12:58;;;;;;;;;;;;;;;20.89;43.84;101381.75;5107046;27;3347;-61
2022/04/18 13:15:25;;;;;;;;;;;;;;;20.88;44.29;101373.72;5113155;27;3251;-59
2022/04/18 13:17:54;;;;;;;;;;;;;;;20.85;44.05;101378.66;5121603;27;2821;-59
2022/04/18 13:20:21;;;;;;;;;;;;;;;20.86;39.21;101367.88;5120765;27;2874;-59
2022/04/18 13:22:47;;;;;;;;;;;;;;;20.83;38.26;101364.13;5116611;27;3274;-59
2022/04/18 13:25:13;;;;;;;;;;;;;;;20.84;38.37;101371.38;5123678;27;2620;-59
2022/04/18 13:27:40;;;;;;;;;;;;;;;20.78;37.03;101364.56;5118274;27;3325;-59